Piquet Carneiro, Brazil
Current Conditions -  °F | °C
As of 10:00 PM on Saturday 25 Oct 2014 (Local Time) from SBJU Reporting Station
Few Clouds Few Clouds  
Wind Chill: 88°   Ceiling: Unl
Heat Index: 88°   Visibility: 6mi
Dew Point: 59°   Wind: 2mph
Humidity: 38%   Direction: 140°SE
Pressure: 29.94"   Gusts: NA
Location:  5.8°S, 39.42°W
Report Text: SBJU 260100Z 14002KT 9999 FEW022 31/15 Q1014
Loading
Personal Weather Stations






























Interactive Weather Map
Tropical Storm Tracking
New forecast layout! Learn more

10-Day Weather Forecast

Advertisements
Track Severe Weather on mobile